首页
METAR-TAF:

METAR-TAF

机场 :

伯力新机场

伯力, 俄罗斯

纬度: 48-31N, 经度: 135-10E, 海拔: 72米

当前天气观测

该预报发布于11分钟前的20:30 UTC
风速10节,风向
温度 -13°C
湿度 66%
气压 1023 hPa
能见度10公里或以上
1500米以下无云,无积雨云

METAR: UHHH 292030Z 36005MPS CAVOK M13/M18 Q1023 R05R/090060 NOSIG RMK QFE761/1015

时间: 06:41 (20:41 UTC)

预报

该预报发布于56分钟前的19:45 UTC
预报有效从29日的 21点(UTC)到 31日的 03点(UTC)
风速16节,风向北转东北
能见度10公里或以上
1500米以下无云,无积雨云

TAF: UHHH 291945Z 2921/3103 02008MPS CAVOK

超过4000个机场的气象观测和天气预报(METAR&TAF报告)。

可查询的气象台以黄色和红色小点在地图上表示。

将鼠标移到小点上方,可查看气象台名称。

然后点击查看天气观测和预报。

如需切换地图:点击带黑十字的绿色按钮放大地图;点击带横线的绿色按钮缩小地图;或者点击绿色箭头查看邻近地区的地图。


METAR-TAF: